sensor_id;sensor_type;location;lat;lon;timestamp;P1;durP1;ratioP1;P2;durP2;ratioP2
3299;SDS011;1662;49.310;8.134;2024-03-22T00:01:50;5.27;;;4.90;;
3299;SDS011;1662;49.310;8.134;2024-03-22T00:04:17;7.23;;;6.00;;
3299;SDS011;1662;49.310;8.134;2024-03-22T00:06:43;7.90;;;6.50;;
3299;SDS011;1662;49.310;8.134;2024-03-22T00:09:10;5.83;;;5.33;;
3299;SDS011;1662;49.310;8.134;2024-03-22T00:11:36;7.00;;;6.30;;
3299;SDS011;1662;49.310;8.134;2024-03-22T00:14:02;6.47;;;5.87;;
3299;SDS011;1662;49.310;8.134;2024-03-22T00:16:33;6.30;;;5.80;;
3299;SDS011;1662;49.310;8.134;2024-03-22T00:18:59;6.27;;;5.63;;
3299;SDS011;1662;49.310;8.134;2024-03-22T00:21:25;6.60;;;6.00;;
3299;SDS011;1662;49.310;8.134;2024-03-22T00:23:53;7.17;;;6.57;;
3299;SDS011;1662;49.310;8.134;2024-03-22T00:26:19;6.30;;;5.90;;
3299;SDS011;1662;49.310;8.134;2024-03-22T00:28:45;6.47;;;5.97;;
3299;SDS011;1662;49.310;8.134;2024-03-22T00:31:10;5.67;;;5.17;;
3299;SDS011;1662;49.310;8.134;2024-03-22T00:33:36;5.83;;;5.33;;
3299;SDS011;1662;49.310;8.134;2024-03-22T00:36:02;5.10;;;4.70;;
3299;SDS011;1662;49.310;8.134;2024-03-22T00:38:27;5.83;;;5.10;;
3299;SDS011;1662;49.310;8.134;2024-03-22T00:40:53;7.00;;;5.30;;
3299;SDS011;1662;49.310;8.134;2024-03-22T00:43:22;5.27;;;4.83;;
3299;SDS011;1662;49.310;8.134;2024-03-22T00:45:47;5.57;;;5.10;;
3299;SDS011;1662;49.310;8.134;2024-03-22T00:48:13;5.87;;;5.30;;
3299;SDS011;1662;49.310;8.134;2024-03-22T00:50:39;5.63;;;5.20;;
3299;SDS011;1662;49.310;8.134;2024-03-22T00:53:04;6.13;;;5.53;;
3299;SDS011;1662;49.310;8.134;2024-03-22T00:55:31;7.17;;;6.20;;
3299;SDS011;1662;49.310;8.134;2024-03-22T00:57:57;9.03;;;7.27;;
3299;SDS011;1662;49.310;8.134;2024-03-22T01:00:22;7.67;;;6.90;;
3299;SDS011;1662;49.310;8.134;2024-03-22T01:02:51;6.90;;;6.20;;
3299;SDS011;1662;49.310;8.134;2024-03-22T01:05:17;10.83;;;7.27;;
3299;SDS011;1662;49.310;8.134;2024-03-22T01:07:43;6.20;;;5.60;;
3299;SDS011;1662;49.310;8.134;2024-03-22T01:10:09;7.10;;;6.40;;
3299;SDS011;1662;49.310;8.134;2024-03-22T01:12:36;10.13;;;7.27;;
3299;SDS011;1662;49.310;8.134;2024-03-22T01:15:04;6.70;;;5.93;;
3299;SDS011;1662;49.310;8.134;2024-03-22T01:17:31;9.13;;;7.43;;
3299;SDS011;1662;49.310;8.134;2024-03-22T01:19:56;8.50;;;6.00;;
3299;SDS011;1662;49.310;8.134;2024-03-22T01:22:22;6.80;;;6.10;;
3299;SDS011;1662;49.310;8.134;2024-03-22T01:24:48;6.97;;;6.27;;
3299;SDS011;1662;49.310;8.134;2024-03-22T01:27:14;8.40;;;7.07;;
3299;SDS011;1662;49.310;8.134;2024-03-22T01:29:39;7.93;;;7.07;;
3299;SDS011;1662;49.310;8.134;2024-03-22T01:32:05;8.00;;;6.93;;
3299;SDS011;1662;49.310;8.134;2024-03-22T01:34:31;9.93;;;6.70;;
3299;SDS011;1662;49.310;8.134;2024-03-22T01:37:00;9.43;;;8.50;;
3299;SDS011;1662;49.310;8.134;2024-03-22T01:39:25;7.93;;;7.07;;
3299;SDS011;1662;49.310;8.134;2024-03-22T01:41:51;8.83;;;7.43;;
3299;SDS011;1662;49.310;8.134;2024-03-22T01:44:17;8.87;;;7.57;;
3299;SDS011;1662;49.310;8.134;2024-03-22T01:46:43;9.03;;;6.50;;
3299;SDS011;1662;49.310;8.134;2024-03-22T01:49:10;7.90;;;7.10;;
3299;SDS011;1662;49.310;8.134;2024-03-22T01:51:39;8.43;;;7.53;;
3299;SDS011;1662;49.310;8.134;2024-03-22T01:54:08;7.97;;;7.17;;
3299;SDS011;1662;49.310;8.134;2024-03-22T01:56:38;9.90;;;8.00;;
3299;SDS011;1662;49.310;8.134;2024-03-22T01:59:04;9.43;;;7.50;;
3299;SDS011;1662;49.310;8.134;2024-03-22T02:01:30;9.67;;;8.67;;
3299;SDS011;1662;49.310;8.134;2024-03-22T02:03:58;8.30;;;7.53;;
3299;SDS011;1662;49.310;8.134;2024-03-22T02:06:24;10.20;;;7.10;;
3299;SDS011;1662;49.310;8.134;2024-03-22T02:08:50;10.67;;;7.87;;
3299;SDS011;1662;49.310;8.134;2024-03-22T02:11:15;6.87;;;5.90;;
3299;SDS011;1662;49.310;8.134;2024-03-22T02:13:44;7.30;;;6.53;;
3299;SDS011;1662;49.310;8.134;2024-03-22T02:16:09;5.87;;;4.90;;
3299;SDS011;1662;49.310;8.134;2024-03-22T02:18:37;8.63;;;4.83;;
3299;SDS011;1662;49.310;8.134;2024-03-22T02:21:03;7.13;;;4.63;;
3299;SDS011;1662;49.310;8.134;2024-03-22T02:23:32;9.23;;;4.83;;
3299;SDS011;1662;49.310;8.134;2024-03-22T02:25:59;5.77;;;5.27;;
3299;SDS011;1662;49.310;8.134;2024-03-22T02:28:25;4.60;;;4.20;;
3299;SDS011;1662;49.310;8.134;2024-03-22T02:30:51;4.73;;;4.23;;
3299;SDS011;1662;49.310;8.134;2024-03-22T02:33:18;6.17;;;4.70;;
3299;SDS011;1662;49.310;8.134;2024-03-22T02:35:47;4.63;;;4.23;;
3299;SDS011;1662;49.310;8.134;2024-03-22T02:38:14;4.10;;;3.80;;
3299;SDS011;1662;49.310;8.134;2024-03-22T02:40:40;4.03;;;3.70;;
3299;SDS011;1662;49.310;8.134;2024-03-22T02:43:05;4.67;;;4.30;;
3299;SDS011;1662;49.310;8.134;2024-03-22T02:45:31;3.50;;;3.30;;
3299;SDS011;1662;49.310;8.134;2024-03-22T02:47:57;5.20;;;4.20;;
3299;SDS011;1662;49.310;8.134;2024-03-22T02:50:23;4.10;;;3.70;;
3299;SDS011;1662;49.310;8.134;2024-03-22T02:52:49;5.27;;;4.30;;
3299;SDS011;1662;49.310;8.134;2024-03-22T02:55:15;4.13;;;3.83;;
3299;SDS011;1662;49.310;8.134;2024-03-22T02:57:40;3.90;;;3.60;;
3299;SDS011;1662;49.310;8.134;2024-03-22T03:00:06;3.80;;;3.60;;
3299;SDS011;1662;49.310;8.134;2024-03-22T03:02:32;3.80;;;3.50;;
3299;SDS011;1662;49.310;8.134;2024-03-22T03:04:58;3.87;;;3.57;;
3299;SDS011;1662;49.310;8.134;2024-03-22T03:07:24;3.80;;;3.60;;
3299;SDS011;1662;49.310;8.134;2024-03-22T03:09:50;5.03;;;3.93;;
3299;SDS011;1662;49.310;8.134;2024-03-22T03:12:16;3.90;;;3.60;;
3299;SDS011;1662;49.310;8.134;2024-03-22T03:14:41;3.87;;;3.40;;
3299;SDS011;1662;49.310;8.134;2024-03-22T03:17:09;3.90;;;3.50;;
3299;SDS011;1662;49.310;8.134;2024-03-22T03:19:35;3.67;;;3.47;;
3299;SDS011;1662;49.310;8.134;2024-03-22T03:22:01;4.67;;;4.27;;
3299;SDS011;1662;49.310;8.134;2024-03-22T03:24:27;4.47;;;4.17;;
3299;SDS011;1662;49.310;8.134;2024-03-22T03:26:53;4.77;;;4.30;;
3299;SDS011;1662;49.310;8.134;2024-03-22T03:29:19;4.47;;;4.03;;
3299;SDS011;1662;49.310;8.134;2024-03-22T03:31:44;4.70;;;4.30;;
3299;SDS011;1662;49.310;8.134;2024-03-22T03:34:10;5.13;;;3.73;;
3299;SDS011;1662;49.310;8.134;2024-03-22T03:36:38;4.10;;;3.83;;
3299;SDS011;1662;49.310;8.134;2024-03-22T03:39:04;4.43;;;4.13;;
3299;SDS011;1662;49.310;8.134;2024-03-22T03:41:29;3.73;;;3.43;;
3299;SDS011;1662;49.310;8.134;2024-03-22T03:43:57;4.37;;;3.97;;
3299;SDS011;1662;49.310;8.134;2024-03-22T03:46:23;4.60;;;4.20;;
3299;SDS011;1662;49.310;8.134;2024-03-22T03:48:48;4.03;;;3.73;;
3299;SDS011;1662;49.310;8.134;2024-03-22T03:51:14;4.80;;;4.40;;
3299;SDS011;1662;49.310;8.134;2024-03-22T03:53:39;4.60;;;4.30;;
3299;SDS011;1662;49.310;8.134;2024-03-22T03:56:05;4.10;;;3.90;;
3299;SDS011;1662;49.310;8.134;2024-03-22T03:58:30;4.33;;;3.90;;
3299;SDS011;1662;49.310;8.134;2024-03-22T04:00:56;6.07;;;4.23;;
3299;SDS011;1662;49.310;8.134;2024-03-22T04:03:22;7.97;;;4.40;;
3299;SDS011;1662;49.310;8.134;2024-03-22T04:05:57;4.10;;;3.73;;
3299;SDS011;1662;49.310;8.134;2024-03-22T04:08:24;5.47;;;3.60;;
3299;SDS011;1662;49.310;8.134;2024-03-22T04:10:51;4.93;;;4.50;;
3299;SDS011;1662;49.310;8.134;2024-03-22T04:13:18;4.80;;;4.10;;
3299;SDS011;1662;49.310;8.134;2024-03-22T04:15:43;4.20;;;3.93;;
3299;SDS011;1662;49.310;8.134;2024-03-22T04:18:09;4.07;;;3.77;;
3299;SDS011;1662;49.310;8.134;2024-03-22T04:20:34;4.20;;;3.90;;
3299;SDS011;1662;49.310;8.134;2024-03-22T04:23:00;3.93;;;3.63;;
3299;SDS011;1662;49.310;8.134;2024-03-22T04:25:28;3.80;;;3.37;;
3299;SDS011;1662;49.310;8.134;2024-03-22T04:27:54;3.27;;;3.07;;
3299;SDS011;1662;49.310;8.134;2024-03-22T04:30:20;3.37;;;3.13;;
3299;SDS011;1662;49.310;8.134;2024-03-22T04:32:45;3.90;;;3.60;;
3299;SDS011;1662;49.310;8.134;2024-03-22T04:35:12;3.77;;;3.43;;
3299;SDS011;1662;49.310;8.134;2024-03-22T04:37:37;3.73;;;3.40;;
3299;SDS011;1662;49.310;8.134;2024-03-22T04:40:03;3.90;;;3.70;;
3299;SDS011;1662;49.310;8.134;2024-03-22T04:42:29;3.60;;;3.40;;
3299;SDS011;1662;49.310;8.134;2024-03-22T04:44:55;3.77;;;3.47;;
3299;SDS011;1662;49.310;8.134;2024-03-22T04:47:23;3.57;;;3.27;;
3299;SDS011;1662;49.310;8.134;2024-03-22T04:49:49;5.47;;;3.53;;
3299;SDS011;1662;49.310;8.134;2024-03-22T04:52:14;3.50;;;3.30;;
3299;SDS011;1662;49.310;8.134;2024-03-22T04:54:40;4.37;;;3.97;;
3299;SDS011;1662;49.310;8.134;2024-03-22T04:57:05;4.40;;;3.67;;
3299;SDS011;1662;49.310;8.134;2024-03-22T04:59:31;3.40;;;3.13;;
3299;SDS011;1662;49.310;8.134;2024-03-22T05:01:57;4.67;;;4.20;;
3299;SDS011;1662;49.310;8.134;2024-03-22T05:04:22;3.90;;;3.70;;
3299;SDS011;1662;49.310;8.134;2024-03-22T05:06:48;4.30;;;3.97;;
3299;SDS011;1662;49.310;8.134;2024-03-22T05:09:13;7.17;;;4.20;;
3299;SDS011;1662;49.310;8.134;2024-03-22T05:11:39;3.97;;;3.67;;
3299;SDS011;1662;49.310;8.134;2024-03-22T05:14:04;3.53;;;3.33;;
3299;SDS011;1662;49.310;8.134;2024-03-22T05:16:30;2.57;;;2.47;;
3299;SDS011;1662;49.310;8.134;2024-03-22T05:18:56;3.00;;;2.80;;
3299;SDS011;1662;49.310;8.134;2024-03-22T05:21:21;2.80;;;2.60;;
3299;SDS011;1662;49.310;8.134;2024-03-22T05:23:47;3.67;;;2.97;;
3299;SDS011;1662;49.310;8.134;2024-03-22T05:26:12;3.50;;;3.30;;
3299;SDS011;1662;49.310;8.134;2024-03-22T05:28:38;3.50;;;3.20;;
3299;SDS011;1662;49.310;8.134;2024-03-22T05:31:03;3.93;;;2.37;;
3299;SDS011;1662;49.310;8.134;2024-03-22T05:33:31;3.50;;;3.30;;
3299;SDS011;1662;49.310;8.134;2024-03-22T05:35:57;3.07;;;2.87;;
3299;SDS011;1662;49.310;8.134;2024-03-22T05:38:22;3.23;;;3.03;;
3299;SDS011;1662;49.310;8.134;2024-03-22T05:40:48;3.07;;;2.87;;
3299;SDS011;1662;49.310;8.134;2024-03-22T05:43:13;3.10;;;2.90;;
3299;SDS011;1662;49.310;8.134;2024-03-22T05:45:42;3.20;;;2.90;;
3299;SDS011;1662;49.310;8.134;2024-03-22T05:48:07;3.03;;;2.30;;
3299;SDS011;1662;49.310;8.134;2024-03-22T05:50:33;3.20;;;3.00;;
3299;SDS011;1662;49.310;8.134;2024-03-22T05:53:01;3.50;;;3.30;;
3299;SDS011;1662;49.310;8.134;2024-03-22T05:55:26;2.63;;;2.43;;
3299;SDS011;1662;49.310;8.134;2024-03-22T05:57:56;2.57;;;2.47;;
3299;SDS011;1662;49.310;8.134;2024-03-22T06:00:21;2.43;;;2.33;;
3299;SDS011;1662;49.310;8.134;2024-03-22T06:02:47;2.90;;;2.67;;
3299;SDS011;1662;49.310;8.134;2024-03-22T06:05:12;3.50;;;3.30;;
3299;SDS011;1662;49.310;8.134;2024-03-22T06:07:38;3.00;;;2.80;;
3299;SDS011;1662;49.310;8.134;2024-03-22T06:10:08;3.30;;;3.10;;
3299;SDS011;1662;49.310;8.134;2024-03-22T06:12:37;3.53;;;3.33;;
3299;SDS011;1662;49.310;8.134;2024-03-22T06:15:03;2.90;;;2.70;;
3299;SDS011;1662;49.310;8.134;2024-03-22T06:17:31;3.57;;;3.37;;
3299;SDS011;1662;49.310;8.134;2024-03-22T06:19:58;5.10;;;4.17;;
3299;SDS011;1662;49.310;8.134;2024-03-22T06:22:24;5.43;;;5.03;;
3299;SDS011;1662;49.310;8.134;2024-03-22T06:24:50;4.80;;;4.37;;
3299;SDS011;1662;49.310;8.134;2024-03-22T06:27:15;3.90;;;3.60;;
3299;SDS011;1662;49.310;8.134;2024-03-22T06:29:41;3.77;;;3.47;;
3299;SDS011;1662;49.310;8.134;2024-03-22T06:32:07;4.10;;;3.73;;
3299;SDS011;1662;49.310;8.134;2024-03-22T06:34:34;4.37;;;4.07;;
3299;SDS011;1662;49.310;8.134;2024-03-22T06:37:00;6.30;;;4.67;;
3299;SDS011;1662;49.310;8.134;2024-03-22T06:39:26;4.13;;;3.83;;
3299;SDS011;1662;49.310;8.134;2024-03-22T06:41:51;5.37;;;4.97;;
3299;SDS011;1662;49.310;8.134;2024-03-22T06:44:19;7.27;;;6.23;;
3299;SDS011;1662;49.310;8.134;2024-03-22T06:46:45;5.70;;;5.20;;
3299;SDS011;1662;49.310;8.134;2024-03-22T06:49:10;5.90;;;5.30;;
3299;SDS011;1662;49.310;8.134;2024-03-22T06:51:38;5.77;;;5.37;;
3299;SDS011;1662;49.310;8.134;2024-03-22T06:54:04;6.27;;;5.77;;
3299;SDS011;1662;49.310;8.134;2024-03-22T06:56:30;6.17;;;5.57;;
3299;SDS011;1662;49.310;8.134;2024-03-22T06:58:55;5.20;;;4.80;;
3299;SDS011;1662;49.310;8.134;2024-03-22T07:01:21;6.13;;;5.53;;
3299;SDS011;1662;49.310;8.134;2024-03-22T07:03:49;6.47;;;5.40;;
3299;SDS011;1662;49.310;8.134;2024-03-22T07:06:15;6.10;;;5.60;;
3299;SDS011;1662;49.310;8.134;2024-03-22T07:08:44;3.80;;;3.50;;
3299;SDS011;1662;49.310;8.134;2024-03-22T07:11:09;6.47;;;5.80;;
3299;SDS011;1662;49.310;8.134;2024-03-22T07:13:35;6.20;;;5.60;;
3299;SDS011;1662;49.310;8.134;2024-03-22T07:16:01;5.77;;;5.27;;
3299;SDS011;1662;49.310;8.134;2024-03-22T07:18:28;5.87;;;5.37;;
3299;SDS011;1662;49.310;8.134;2024-03-22T07:20:54;7.43;;;6.77;;
3299;SDS011;1662;49.310;8.134;2024-03-22T07:23:20;6.00;;;5.47;;
3299;SDS011;1662;49.310;8.134;2024-03-22T07:25:48;5.90;;;5.30;;
3299;SDS011;1662;49.310;8.134;2024-03-22T07:28:14;5.37;;;4.87;;
3299;SDS011;1662;49.310;8.134;2024-03-22T07:30:43;6.53;;;5.93;;
3299;SDS011;1662;49.310;8.134;2024-03-22T07:33:11;5.67;;;5.17;;
3299;SDS011;1662;49.310;8.134;2024-03-22T07:35:41;6.50;;;5.33;;
3299;SDS011;1662;49.310;8.134;2024-03-22T07:38:07;7.27;;;5.83;;
3299;SDS011;1662;49.310;8.134;2024-03-22T07:40:33;6.20;;;5.70;;
3299;SDS011;1662;49.310;8.134;2024-03-22T07:42:58;5.93;;;5.53;;
3299;SDS011;1662;49.310;8.134;2024-03-22T07:45:24;7.13;;;6.50;;
3299;SDS011;1662;49.310;8.134;2024-03-22T07:47:50;7.13;;;6.50;;
3299;SDS011;1662;49.310;8.134;2024-03-22T07:50:16;6.20;;;5.53;;
3299;SDS011;1662;49.310;8.134;2024-03-22T07:52:42;6.70;;;6.10;;
3299;SDS011;1662;49.310;8.134;2024-03-22T07:55:08;6.80;;;6.20;;
3299;SDS011;1662;49.310;8.134;2024-03-22T07:57:33;9.70;;;5.60;;
3299;SDS011;1662;49.310;8.134;2024-03-22T07:59:59;8.20;;;6.67;;
3299;SDS011;1662;49.310;8.134;2024-03-22T08:02:24;8.50;;;5.23;;
3299;SDS011;1662;49.310;8.134;2024-03-22T08:04:50;6.57;;;5.60;;
3299;SDS011;1662;49.310;8.134;2024-03-22T08:07:15;7.17;;;5.90;;
3299;SDS011;1662;49.310;8.134;2024-03-22T08:09:41;7.10;;;6.50;;
3299;SDS011;1662;49.310;8.134;2024-03-22T08:12:06;7.10;;;6.43;;
3299;SDS011;1662;49.310;8.134;2024-03-22T08:14:32;6.97;;;6.30;;
3299;SDS011;1662;49.310;8.134;2024-03-22T08:16:58;7.00;;;6.20;;
3299;SDS011;1662;49.310;8.134;2024-03-22T08:19:23;5.97;;;5.40;;
3299;SDS011;1662;49.310;8.134;2024-03-22T08:21:49;5.30;;;4.73;;
3299;SDS011;1662;49.310;8.134;2024-03-22T08:24:18;5.77;;;5.27;;
3299;SDS011;1662;49.310;8.134;2024-03-22T08:26:44;6.97;;;5.70;;
3299;SDS011;1662;49.310;8.134;2024-03-22T08:29:12;6.23;;;5.20;;
3299;SDS011;1662;49.310;8.134;2024-03-22T08:31:39;7.03;;;6.20;;
3299;SDS011;1662;49.310;8.134;2024-03-22T08:34:05;6.70;;;4.93;;
3299;SDS011;1662;49.310;8.134;2024-03-22T08:36:31;6.03;;;5.47;;
3299;SDS011;1662;49.310;8.134;2024-03-22T08:38:56;7.67;;;7.00;;
3299;SDS011;1662;49.310;8.134;2024-03-22T08:41:22;6.53;;;5.93;;
3299;SDS011;1662;49.310;8.134;2024-03-22T08:43:48;6.53;;;6.03;;
3299;SDS011;1662;49.310;8.134;2024-03-22T08:46:13;6.33;;;5.50;;
3299;SDS011;1662;49.310;8.134;2024-03-22T08:48:39;6.87;;;6.17;;
3299;SDS011;1662;49.310;8.134;2024-03-22T08:51:07;6.23;;;5.63;;
3299;SDS011;1662;49.310;8.134;2024-03-22T08:53:32;6.00;;;5.50;;
3299;SDS011;1662;49.310;8.134;2024-03-22T08:55:58;7.63;;;6.93;;
3299;SDS011;1662;49.310;8.134;2024-03-22T08:58:24;6.30;;;5.80;;
3299;SDS011;1662;49.310;8.134;2024-03-22T09:00:49;7.40;;;6.17;;
3299;SDS011;1662;49.310;8.134;2024-03-22T09:03:15;6.07;;;5.47;;
3299;SDS011;1662;49.310;8.134;2024-03-22T09:05:41;9.23;;;6.17;;
3299;SDS011;1662;49.310;8.134;2024-03-22T09:08:06;6.70;;;6.10;;
3299;SDS011;1662;49.310;8.134;2024-03-22T09:10:32;5.73;;;5.30;;
3299;SDS011;1662;49.310;8.134;2024-03-22T09:12:57;6.03;;;5.43;;
3299;SDS011;1662;49.310;8.134;2024-03-22T09:15:23;6.00;;;5.50;;
3299;SDS011;1662;49.310;8.134;2024-03-22T09:17:51;6.20;;;5.60;;
3299;SDS011;1662;49.310;8.134;2024-03-22T09:20:17;3.60;;;3.40;;
3299;SDS011;1662;49.310;8.134;2024-03-22T09:22:43;6.20;;;5.60;;
3299;SDS011;1662;49.310;8.134;2024-03-22T09:25:08;5.37;;;4.97;;
3299;SDS011;1662;49.310;8.134;2024-03-22T09:27:34;5.17;;;4.77;;
3299;SDS011;1662;49.310;8.134;2024-03-22T09:30:02;7.63;;;5.20;;
3299;SDS011;1662;49.310;8.134;2024-03-22T09:32:29;5.37;;;4.90;;
3299;SDS011;1662;49.310;8.134;2024-03-22T09:34:55;5.60;;;5.10;;
3299;SDS011;1662;49.310;8.134;2024-03-22T09:37:20;5.27;;;4.77;;
3299;SDS011;1662;49.310;8.134;2024-03-22T09:39:46;8.23;;;5.60;;
3299;SDS011;1662;49.310;8.134;2024-03-22T09:42:13;5.17;;;4.77;;
3299;SDS011;1662;49.310;8.134;2024-03-22T09:44:48;6.80;;;4.27;;
3299;SDS011;1662;49.310;8.134;2024-03-22T09:47:17;7.07;;;5.30;;
3299;SDS011;1662;49.310;8.134;2024-03-22T09:49:45;5.60;;;5.07;;
3299;SDS011;1662;49.310;8.134;2024-03-22T09:52:12;5.87;;;5.13;;
3299;SDS011;1662;49.310;8.134;2024-03-22T09:54:39;5.27;;;4.80;;
3299;SDS011;1662;49.310;8.134;2024-03-22T09:57:08;5.47;;;5.07;;
3299;SDS011;1662;49.310;8.134;2024-03-22T09:59:37;5.60;;;5.10;;
3299;SDS011;1662;49.310;8.134;2024-03-22T10:02:08;6.30;;;5.40;;
3299;SDS011;1662;49.310;8.134;2024-03-22T10:04:36;4.13;;;3.73;;
3299;SDS011;1662;49.310;8.134;2024-03-22T10:07:02;5.27;;;4.50;;
3299;SDS011;1662;49.310;8.134;2024-03-22T10:09:29;5.27;;;4.30;;
3299;SDS011;1662;49.310;8.134;2024-03-22T10:11:55;5.97;;;5.37;;
3299;SDS011;1662;49.310;8.134;2024-03-22T10:14:21;5.40;;;5.00;;
3299;SDS011;1662;49.310;8.134;2024-03-22T10:16:50;5.80;;;4.33;;
3299;SDS011;1662;49.310;8.134;2024-03-22T10:19:20;4.13;;;3.93;;
3299;SDS011;1662;49.310;8.134;2024-03-22T10:21:46;6.13;;;4.10;;
3299;SDS011;1662;49.310;8.134;2024-03-22T10:24:13;3.97;;;3.67;;
3299;SDS011;1662;49.310;8.134;2024-03-22T10:26:39;4.67;;;4.27;;
3299;SDS011;1662;49.310;8.134;2024-03-22T10:29:08;4.60;;;4.27;;
3299;SDS011;1662;49.310;8.134;2024-03-22T10:31:35;5.33;;;4.93;;
3299;SDS011;1662;49.310;8.134;2024-03-22T10:34:02;4.43;;;4.13;;
3299;SDS011;1662;49.310;8.134;2024-03-22T10:36:31;4.97;;;4.57;;
3299;SDS011;1662;49.310;8.134;2024-03-22T10:39:00;5.73;;;3.97;;
3299;SDS011;1662;49.310;8.134;2024-03-22T10:41:26;4.57;;;4.17;;
3299;SDS011;1662;49.310;8.134;2024-03-22T10:43:52;4.10;;;3.70;;
3299;SDS011;1662;49.310;8.134;2024-03-22T10:46:21;4.03;;;3.80;;
3299;SDS011;1662;49.310;8.134;2024-03-22T10:48:48;4.20;;;3.70;;
3299;SDS011;1662;49.310;8.134;2024-03-22T10:51:14;4.40;;;4.00;;
3299;SDS011;1662;49.310;8.134;2024-03-22T10:53:41;5.60;;;5.20;;
3299;SDS011;1662;49.310;8.134;2024-03-22T10:56:07;4.63;;;4.27;;
3299;SDS011;1662;49.310;8.134;2024-03-22T10:58:34;5.17;;;4.77;;
3299;SDS011;1662;49.310;8.134;2024-03-22T11:01:04;5.13;;;4.63;;
3299;SDS011;1662;49.310;8.134;2024-03-22T11:03:30;4.77;;;4.50;;
3299;SDS011;1662;49.310;8.134;2024-03-22T11:05:59;4.40;;;4.10;;
3299;SDS011;1662;49.310;8.134;2024-03-22T11:08:25;4.17;;;3.87;;
3299;SDS011;1662;49.310;8.134;2024-03-22T11:10:52;4.60;;;4.20;;
3299;SDS011;1662;49.310;8.134;2024-03-22T11:13:18;4.10;;;3.90;;
3299;SDS011;1662;49.310;8.134;2024-03-22T11:15:48;4.70;;;4.40;;
3299;SDS011;1662;49.310;8.134;2024-03-22T11:18:14;5.20;;;4.77;;
3299;SDS011;1662;49.310;8.134;2024-03-22T11:20:41;5.07;;;4.60;;
3299;SDS011;1662;49.310;8.134;2024-03-22T11:23:10;5.10;;;4.57;;
3299;SDS011;1662;49.310;8.134;2024-03-22T11:25:36;4.80;;;4.50;;
3299;SDS011;1662;49.310;8.134;2024-03-22T11:28:04;4.40;;;4.07;;
3299;SDS011;1662;49.310;8.134;2024-03-22T11:30:30;4.70;;;4.40;;
3299;SDS011;1662;49.310;8.134;2024-03-22T11:33:00;4.80;;;4.27;;
3299;SDS011;1662;49.310;8.134;2024-03-22T11:35:26;5.90;;;5.30;;
3299;SDS011;1662;49.310;8.134;2024-03-22T11:37:52;4.77;;;4.47;;
3299;SDS011;1662;49.310;8.134;2024-03-22T11:40:17;5.23;;;4.83;;
3299;SDS011;1662;49.310;8.134;2024-03-22T11:42:47;5.30;;;5.00;;
3299;SDS011;1662;49.310;8.134;2024-03-22T11:45:17;5.37;;;4.87;;
3299;SDS011;1662;49.310;8.134;2024-03-22T11:47:46;6.60;;;6.00;;
3299;SDS011;1662;49.310;8.134;2024-03-22T11:50:12;5.40;;;4.90;;
3299;SDS011;1662;49.310;8.134;2024-03-22T11:52:42;5.40;;;4.90;;
3299;SDS011;1662;49.310;8.134;2024-03-22T11:55:11;8.10;;;5.10;;
3299;SDS011;1662;49.310;8.134;2024-03-22T11:57:39;5.20;;;4.80;;
3299;SDS011;1662;49.310;8.134;2024-03-22T12:00:04;6.60;;;5.30;;
3299;SDS011;1662;49.310;8.134;2024-03-22T12:02:37;4.40;;;4.20;;
3299;SDS011;1662;49.310;8.134;2024-03-22T12:05:03;5.50;;;5.10;;
3299;SDS011;1662;49.310;8.134;2024-03-22T12:07:30;5.13;;;4.73;;
3299;SDS011;1662;49.310;8.134;2024-03-22T12:09:57;5.87;;;5.37;;
3299;SDS011;1662;49.310;8.134;2024-03-22T12:12:25;5.60;;;5.10;;
3299;SDS011;1662;49.310;8.134;2024-03-22T12:14:51;6.40;;;5.30;;
3299;SDS011;1662;49.310;8.134;2024-03-22T12:17:17;5.57;;;5.17;;
3299;SDS011;1662;49.310;8.134;2024-03-22T12:19:43;5.20;;;4.70;;
3299;SDS011;1662;49.310;8.134;2024-03-22T12:22:12;7.33;;;5.27;;
3299;SDS011;1662;49.310;8.134;2024-03-22T12:24:38;4.77;;;4.53;;
3299;SDS011;1662;49.310;8.134;2024-03-22T12:27:03;5.43;;;5.00;;
3299;SDS011;1662;49.310;8.134;2024-03-22T12:29:31;5.63;;;5.10;;
3299;SDS011;1662;49.310;8.134;2024-03-22T12:31:57;5.07;;;4.67;;
3299;SDS011;1662;49.310;8.134;2024-03-22T12:34:25;5.63;;;5.13;;
3299;SDS011;1662;49.310;8.134;2024-03-22T12:36:54;5.03;;;4.70;;
3299;SDS011;1662;49.310;8.134;2024-03-22T12:39:20;4.70;;;4.40;;
3299;SDS011;1662;49.310;8.134;2024-03-22T12:41:45;6.70;;;5.10;;
3299;SDS011;1662;49.310;8.134;2024-03-22T12:44:11;5.87;;;5.07;;
3299;SDS011;1662;49.310;8.134;2024-03-22T12:46:37;4.83;;;4.53;;
3299;SDS011;1662;49.310;8.134;2024-03-22T12:49:02;5.03;;;4.63;;
3299;SDS011;1662;49.310;8.134;2024-03-22T12:51:28;5.27;;;4.87;;
3299;SDS011;1662;49.310;8.134;2024-03-22T12:53:54;5.20;;;4.80;;
3299;SDS011;1662;49.310;8.134;2024-03-22T12:56:20;4.90;;;4.60;;
3299;SDS011;1662;49.310;8.134;2024-03-22T12:58:46;5.33;;;4.83;;
3299;SDS011;1662;49.310;8.134;2024-03-22T13:01:12;4.77;;;4.47;;
3299;SDS011;1662;49.310;8.134;2024-03-22T13:03:39;5.40;;;5.00;;
3299;SDS011;1662;49.310;8.134;2024-03-22T13:06:04;7.70;;;6.43;;
3299;SDS011;1662;49.310;8.134;2024-03-22T13:08:33;6.93;;;5.07;;
3299;SDS011;1662;49.310;8.134;2024-03-22T13:10:58;5.93;;;5.03;;
3299;SDS011;1662;49.310;8.134;2024-03-22T13:13:24;6.90;;;4.30;;
3299;SDS011;1662;49.310;8.134;2024-03-22T13:15:50;5.10;;;4.77;;
3299;SDS011;1662;49.310;8.134;2024-03-22T13:18:15;5.50;;;5.20;;
3299;SDS011;1662;49.310;8.134;2024-03-22T13:20:41;10.23;;;9.33;;
3299;SDS011;1662;49.310;8.134;2024-03-22T13:23:06;7.20;;;6.60;;
3299;SDS011;1662;49.310;8.134;2024-03-22T13:25:34;9.73;;;8.00;;
3299;SDS011;1662;49.310;8.134;2024-03-22T13:28:02;7.40;;;6.80;;
3299;SDS011;1662;49.310;8.134;2024-03-22T13:30:30;8.17;;;7.23;;
3299;SDS011;1662;49.310;8.134;2024-03-22T13:33:00;8.47;;;7.77;;
3299;SDS011;1662;49.310;8.134;2024-03-22T13:35:26;7.00;;;6.40;;
3299;SDS011;1662;49.310;8.134;2024-03-22T13:37:51;11.77;;;7.53;;
3299;SDS011;1662;49.310;8.134;2024-03-22T13:40:17;12.00;;;10.20;;
3299;SDS011;1662;49.310;8.134;2024-03-22T13:42:48;9.63;;;8.83;;
3299;SDS011;1662;49.310;8.134;2024-03-22T13:45:17;12.07;;;10.83;;
3299;SDS011;1662;49.310;8.134;2024-03-22T13:47:42;12.77;;;10.30;;
3299;SDS011;1662;49.310;8.134;2024-03-22T13:50:08;11.30;;;10.23;;
3299;SDS011;1662;49.310;8.134;2024-03-22T13:52:34;12.63;;;10.60;;
3299;SDS011;1662;49.310;8.134;2024-03-22T13:55:00;12.43;;;9.77;;
3299;SDS011;1662;49.310;8.134;2024-03-22T13:57:29;8.30;;;7.47;;
3299;SDS011;1662;49.310;8.134;2024-03-22T13:59:56;11.70;;;9.40;;
3299;SDS011;1662;49.310;8.134;2024-03-22T14:02:21;9.83;;;8.93;;
3299;SDS011;1662;49.310;8.134;2024-03-22T14:04:47;11.97;;;10.27;;
3299;SDS011;1662;49.310;8.134;2024-03-22T14:07:13;11.77;;;10.73;;
3299;SDS011;1662;49.310;8.134;2024-03-22T14:09:38;10.77;;;9.80;;
3299;SDS011;1662;49.310;8.134;2024-03-22T14:12:05;11.63;;;10.47;;
3299;SDS011;1662;49.310;8.134;2024-03-22T14:14:32;11.47;;;10.50;;
3299;SDS011;1662;49.310;8.134;2024-03-22T14:16:58;12.10;;;10.90;;
3299;SDS011;1662;49.310;8.134;2024-03-22T14:19:24;13.17;;;10.33;;
3299;SDS011;1662;49.310;8.134;2024-03-22T14:21:50;11.87;;;10.73;;
3299;SDS011;1662;49.310;8.134;2024-03-22T14:24:15;11.70;;;10.30;;
3299;SDS011;1662;49.310;8.134;2024-03-22T14:26:41;13.20;;;11.87;;
3299;SDS011;1662;49.310;8.134;2024-03-22T14:29:11;12.93;;;11.70;;
3299;SDS011;1662;49.310;8.134;2024-03-22T14:31:37;11.40;;;10.40;;
3299;SDS011;1662;49.310;8.134;2024-03-22T14:34:07;12.03;;;10.97;;
3299;SDS011;1662;49.310;8.134;2024-03-22T14:36:33;15.70;;;12.00;;
3299;SDS011;1662;49.310;8.134;2024-03-22T14:38:59;12.40;;;11.30;;
3299;SDS011;1662;49.310;8.134;2024-03-22T14:41:25;14.63;;;13.17;;
3299;SDS011;1662;49.310;8.134;2024-03-22T14:43:50;12.87;;;11.53;;
3299;SDS011;1662;49.310;8.134;2024-03-22T14:46:16;14.73;;;13.33;;
3299;SDS011;1662;49.310;8.134;2024-03-22T14:48:48;12.23;;;11.13;;
3299;SDS011;1662;49.310;8.134;2024-03-22T14:51:13;12.90;;;11.40;;
3299;SDS011;1662;49.310;8.134;2024-03-22T14:53:41;17.17;;;13.00;;
3299;SDS011;1662;49.310;8.134;2024-03-22T14:56:07;12.90;;;11.70;;
3299;SDS011;1662;49.310;8.134;2024-03-22T14:58:36;14.20;;;12.80;;
3299;SDS011;1662;49.310;8.134;2024-03-22T15:01:05;13.37;;;12.10;;
3299;SDS011;1662;49.310;8.134;2024-03-22T15:03:31;13.50;;;12.07;;
3299;SDS011;1662;49.310;8.134;2024-03-22T15:06:00;13.17;;;11.97;;
3299;SDS011;1662;49.310;8.134;2024-03-22T15:08:28;13.20;;;12.10;;